Terminal Aerodrome Forecast
Issued by NWS

Home | Current Version | Previous Version | Text Only | Print | Product List | Glossary On
Versions: 1 2 3 4 5 6 7 8 9 10 11 12 13 14 15 16
000
FTUS43 KGRR 251732
TAFMKG
TAF
KMKG 251732Z 2518/2618 08016G24KT P6SM BKN010 OVC020
     FM251900 08017KT 4SM -SHRA OVC020
      TEMPO 2519/2522 2SM SHRA BR OVC015
     FM252200 09017KT P6SM OVC015
     FM260000 09017KT 2SM -SHRA VCTS OVC015CB
     FM260600 10009KT 5SM BR VCSH OVC007
     FM260900 10015KT 1 1/2SM -SHRA OVC008
     FM261200 10012KT 1 1/2SM -SHRA BR OVC008
     FM261400 10010KT 4SM -SHRA BR OVC008=

USA.gov is the U.S. government's official web portal to all federal, state and local government web resources and services.